Aeroporto :
LOGIN :

Iscrizione | Disclaimer

   EN    FR    IT 

 










Sommario :    VFR   VFR Marginale   IFR   IFR Intensivo   IFR Molto Intensivo
Visibilità : 
Base nubi : 
>= 8 km
>= 3000ft
5 / 8 km
1000 / 3000 ft
1500m / 5 km
500 / 1000 ft
800 / 1500m
200 / 500 ft
< 800m
< 200 ft
Simboli :   Temporali  Nebbia  Neve Forte  Precipitazioni Forti  Vento > 20 kt
SIGMETs :   Varie  Temporali  Ghiacco  Turbolenza  Onda orograficha  Ceneri Vulcaniche






- Altitudine del aeroporto : 788 ft
- Codice IATA : DCM


LFCK - Castres-Mazamet

ULTIMO METAR :
  • 171200Z AUTO 33007KT 9999 BKN024 OVC032 08/04 Q1009 TEMPO BKN010

METARs OBSOLETI :
  • 171130Z AUTO 32005KT 270V350 9999 SCT019 BKN030 OVC035 08/04 Q1009 TEMPO BKN010
  • 171100Z AUTO 30005KT 270V350 9999 BKN016 BKN023 BKN230 08/05 Q1009 TEMPO BKN010
  • 171030Z AUTO 29007KT 9999 BKN013 OVC020 07/05 Q1010 NOSIG
  • 171000Z AUTO 30009KT 9999 FEW009 BKN031 OVC050 07/05 Q1010 TEMPO BKN010
  • 170930Z AUTO 30007KT 9999 BKN006 BKN027 OVC034 07/06 Q1010 TEMPO BKN010

TAF TAF LFCK
Valido dal 17 a 12 ore il 17 a 21 ore UTC


171100Z 1712/1721 29010KT 9999 BKN020
PROB30
TEMPO 1712/1715 BKN010
BECMG 1715/1717 VRB02KT



MetMap, La meteo Aeronautica in un colpo d'occhio ! - Copyright ORBIFLY Dicembre 2007 - Disclaimer

ORBIFLY MET'MAP TEAM :

Programmazione e sviluppo : Alexandra Zaïnal
Concezione e sviluppo : Baudouin d'Aumeries
Co-Programmazione e sviluppo : Marc-Olivier Méhu
Supporto tecnico e logistico : Manuel Goepfert
Aiuto per la traduzione : Arnaldo La Scala

Contatto : metmap@orbifly.com




FONTI E CREDITI :

   NOAA